sensor_id;sensor_type;location;lat;lon;timestamp;P1;durP1;ratioP1;P2;durP2;ratioP2
81154;SDS011;70631;50.436;7.826;2023-09-19T00:01:06;4.53;;;1.80;;
81154;SDS011;70631;50.436;7.826;2023-09-19T00:03:34;4.70;;;1.63;;
81154;SDS011;70631;50.436;7.826;2023-09-19T00:06:04;1.65;;;1.55;;
81154;SDS011;70631;50.436;7.826;2023-09-19T00:08:32;3.30;;;2.00;;
81154;SDS011;70631;50.436;7.826;2023-09-19T00:11:01;2.78;;;1.88;;
81154;SDS011;70631;50.436;7.826;2023-09-19T00:13:27;3.50;;;1.95;;
81154;SDS011;70631;50.436;7.826;2023-09-19T00:15:53;3.35;;;1.73;;
81154;SDS011;70631;50.436;7.826;2023-09-19T00:18:20;4.50;;;1.90;;
81154;SDS011;70631;50.436;7.826;2023-09-19T00:20:46;4.50;;;1.77;;
81154;SDS011;70631;50.436;7.826;2023-09-19T00:23:16;3.20;;;2.10;;
81154;SDS011;70631;50.436;7.826;2023-09-19T00:25:42;3.97;;;2.10;;
81154;SDS011;70631;50.436;7.826;2023-09-19T00:28:07;4.25;;;1.80;;
81154;SDS011;70631;50.436;7.826;2023-09-19T00:30:35;4.75;;;1.95;;
81154;SDS011;70631;50.436;7.826;2023-09-19T00:33:03;5.28;;;1.80;;
81154;SDS011;70631;50.436;7.826;2023-09-19T00:35:31;2.20;;;1.80;;
81154;SDS011;70631;50.436;7.826;2023-09-19T00:37:56;3.83;;;1.83;;
81154;SDS011;70631;50.436;7.826;2023-09-19T00:40:21;2.00;;;1.77;;
81154;SDS011;70631;50.436;7.826;2023-09-19T00:42:47;3.60;;;1.80;;
81154;SDS011;70631;50.436;7.826;2023-09-19T00:45:14;4.43;;;1.85;;
81154;SDS011;70631;50.436;7.826;2023-09-19T00:47:44;1.92;;;1.80;;
81154;SDS011;70631;50.436;7.826;2023-09-19T00:50:13;4.28;;;2.00;;
81154;SDS011;70631;50.436;7.826;2023-09-19T00:52:42;3.30;;;1.90;;
81154;SDS011;70631;50.436;7.826;2023-09-19T00:55:09;3.83;;;1.77;;
81154;SDS011;70631;50.436;7.826;2023-09-19T00:57:36;2.10;;;1.60;;
81154;SDS011;70631;50.436;7.826;2023-09-19T01:00:03;3.58;;;2.00;;
81154;SDS011;70631;50.436;7.826;2023-09-19T01:02:31;3.95;;;1.88;;
81154;SDS011;70631;50.436;7.826;2023-09-19T01:04:57;6.25;;;2.05;;
81154;SDS011;70631;50.436;7.826;2023-09-19T01:07:23;2.95;;;1.75;;
81154;SDS011;70631;50.436;7.826;2023-09-19T01:09:48;3.35;;;1.85;;
81154;SDS011;70631;50.436;7.826;2023-09-19T01:12:16;2.97;;;2.03;;
81154;SDS011;70631;50.436;7.826;2023-09-19T01:14:55;2.60;;;1.63;;
81154;SDS011;70631;50.436;7.826;2023-09-19T01:17:26;3.33;;;1.80;;
81154;SDS011;70631;50.436;7.826;2023-09-19T01:20:03;3.40;;;1.90;;
81154;SDS011;70631;50.436;7.826;2023-09-19T01:31:01;4.85;;;1.70;;
81154;SDS011;70631;50.436;7.826;2023-09-19T01:33:28;1.83;;;1.63;;
81154;SDS011;70631;50.436;7.826;2023-09-19T01:35:58;3.42;;;1.67;;
81154;SDS011;70631;50.436;7.826;2023-09-19T01:38:24;4.47;;;1.80;;
81154;SDS011;70631;50.436;7.826;2023-09-19T01:41:25;4.57;;;1.90;;
81154;SDS011;70631;50.436;7.826;2023-09-19T01:43:46;3.55;;;1.90;;
81154;SDS011;70631;50.436;7.826;2023-09-19T01:46:15;3.13;;;1.88;;
81154;SDS011;70631;50.436;7.826;2023-09-19T01:48:54;4.22;;;1.67;;
81154;SDS011;70631;50.436;7.826;2023-09-19T01:51:50;2.50;;;2.05;;
81154;SDS011;70631;50.436;7.826;2023-09-19T01:54:27;4.80;;;1.75;;
81154;SDS011;70631;50.436;7.826;2023-09-19T01:57:05;4.30;;;1.30;;
81154;SDS011;70631;50.436;7.826;2023-09-19T01:59:37;3.10;;;1.60;;
81154;SDS011;70631;50.436;7.826;2023-09-19T02:02:10;2.67;;;1.30;;
81154;SDS011;70631;50.436;7.826;2023-09-19T02:04:37;5.88;;;1.80;;
81154;SDS011;70631;50.436;7.826;2023-09-19T02:07:02;2.47;;;1.40;;
81154;SDS011;70631;50.436;7.826;2023-09-19T02:09:30;2.45;;;1.55;;
81154;SDS011;70631;50.436;7.826;2023-09-19T02:11:55;1.73;;;1.40;;
81154;SDS011;70631;50.436;7.826;2023-09-19T02:14:21;3.60;;;1.50;;
81154;SDS011;70631;50.436;7.826;2023-09-19T02:16:47;2.72;;;1.40;;
81154;SDS011;70631;50.436;7.826;2023-09-19T02:19:13;3.53;;;1.30;;
81154;SDS011;70631;50.436;7.826;2023-09-19T02:21:38;1.97;;;1.27;;
81154;SDS011;70631;50.436;7.826;2023-09-19T02:24:05;4.22;;;1.30;;
81154;SDS011;70631;50.436;7.826;2023-09-19T02:26:33;3.72;;;1.52;;
81154;SDS011;70631;50.436;7.826;2023-09-19T02:29:00;2.08;;;1.60;;
81154;SDS011;70631;50.436;7.826;2023-09-19T02:31:26;2.83;;;1.45;;
81154;SDS011;70631;50.436;7.826;2023-09-19T02:33:54;3.00;;;1.13;;
81154;SDS011;70631;50.436;7.826;2023-09-19T02:36:19;3.53;;;1.50;;
81154;SDS011;70631;50.436;7.826;2023-09-19T02:38:45;3.27;;;1.30;;
81154;SDS011;70631;50.436;7.826;2023-09-19T02:41:10;2.80;;;1.25;;
81154;SDS011;70631;50.436;7.826;2023-09-19T02:43:35;5.85;;;1.58;;
81154;SDS011;70631;50.436;7.826;2023-09-19T02:46:01;5.95;;;1.70;;
81154;SDS011;70631;50.436;7.826;2023-09-19T02:48:27;1.67;;;1.15;;
81154;SDS011;70631;50.436;7.826;2023-09-19T02:50:54;5.55;;;1.45;;
81154;SDS011;70631;50.436;7.826;2023-09-19T02:53:19;3.10;;;1.15;;
81154;SDS011;70631;50.436;7.826;2023-09-19T02:55:46;5.75;;;1.73;;
81154;SDS011;70631;50.436;7.826;2023-09-19T02:58:12;5.20;;;1.60;;
81154;SDS011;70631;50.436;7.826;2023-09-19T03:00:39;2.15;;;1.30;;
81154;SDS011;70631;50.436;7.826;2023-09-19T03:03:06;2.03;;;1.13;;
81154;SDS011;70631;50.436;7.826;2023-09-19T03:05:33;4.47;;;1.30;;
81154;SDS011;70631;50.436;7.826;2023-09-19T03:07:59;5.70;;;1.35;;
81154;SDS011;70631;50.436;7.826;2023-09-19T03:10:28;2.53;;;1.23;;
81154;SDS011;70631;50.436;7.826;2023-09-19T03:12:54;5.60;;;1.40;;
81154;SDS011;70631;50.436;7.826;2023-09-19T03:15:19;1.50;;;1.00;;
81154;SDS011;70631;50.436;7.826;2023-09-19T03:17:46;4.30;;;1.30;;
81154;SDS011;70631;50.436;7.826;2023-09-19T03:20:17;3.47;;;1.55;;
81154;SDS011;70631;50.436;7.826;2023-09-19T03:22:45;2.03;;;0.98;;
81154;SDS011;70631;50.436;7.826;2023-09-19T03:25:11;3.78;;;1.30;;
81154;SDS011;70631;50.436;7.826;2023-09-19T03:27:37;5.50;;;1.17;;
81154;SDS011;70631;50.436;7.826;2023-09-19T03:30:05;2.58;;;1.33;;
81154;SDS011;70631;50.436;7.826;2023-09-19T03:32:34;5.47;;;1.33;;
81154;SDS011;70631;50.436;7.826;2023-09-19T03:35:01;3.25;;;1.60;;
81154;SDS011;70631;50.436;7.826;2023-09-19T03:37:26;3.78;;;1.60;;
81154;SDS011;70631;50.436;7.826;2023-09-19T03:39:51;6.43;;;1.73;;
81154;SDS011;70631;50.436;7.826;2023-09-19T03:42:17;1.40;;;1.23;;
81154;SDS011;70631;50.436;7.826;2023-09-19T03:44:42;4.07;;;1.60;;
81154;SDS011;70631;50.436;7.826;2023-09-19T03:47:07;8.07;;;1.60;;
81154;SDS011;70631;50.436;7.826;2023-09-19T03:49:33;3.37;;;1.57;;
81154;SDS011;70631;50.436;7.826;2023-09-19T03:51:59;6.07;;;1.52;;
81154;SDS011;70631;50.436;7.826;2023-09-19T03:54:24;3.77;;;1.83;;
81154;SDS011;70631;50.436;7.826;2023-09-19T03:56:49;3.27;;;1.67;;
81154;SDS011;70631;50.436;7.826;2023-09-19T03:59:15;3.88;;;1.45;;
81154;SDS011;70631;50.436;7.826;2023-09-19T04:01:41;3.38;;;1.58;;
81154;SDS011;70631;50.436;7.826;2023-09-19T04:04:06;3.47;;;1.50;;
81154;SDS011;70631;50.436;7.826;2023-09-19T04:06:34;4.57;;;1.40;;
81154;SDS011;70631;50.436;7.826;2023-09-19T04:09:00;6.78;;;2.08;;
81154;SDS011;70631;50.436;7.826;2023-09-19T04:11:26;2.88;;;1.75;;
81154;SDS011;70631;50.436;7.826;2023-09-19T04:13:52;3.80;;;1.75;;
81154;SDS011;70631;50.436;7.826;2023-09-19T04:16:17;3.53;;;1.50;;
81154;SDS011;70631;50.436;7.826;2023-09-19T04:18:42;4.68;;;1.83;;
81154;SDS011;70631;50.436;7.826;2023-09-19T04:21:08;3.03;;;1.50;;
81154;SDS011;70631;50.436;7.826;2023-09-19T04:23:34;2.37;;;1.47;;
81154;SDS011;70631;50.436;7.826;2023-09-19T04:25:59;7.00;;;1.80;;
81154;SDS011;70631;50.436;7.826;2023-09-19T04:28:25;3.28;;;1.80;;
81154;SDS011;70631;50.436;7.826;2023-09-19T04:30:52;5.90;;;1.55;;
81154;SDS011;70631;50.436;7.826;2023-09-19T04:33:18;4.78;;;1.45;;
81154;SDS011;70631;50.436;7.826;2023-09-19T04:35:43;2.80;;;1.45;;
81154;SDS011;70631;50.436;7.826;2023-09-19T04:38:09;3.75;;;1.50;;
81154;SDS011;70631;50.436;7.826;2023-09-19T04:40:34;3.28;;;1.60;;
81154;SDS011;70631;50.436;7.826;2023-09-19T04:43:00;4.05;;;1.98;;
81154;SDS011;70631;50.436;7.826;2023-09-19T04:45:26;6.38;;;1.52;;
81154;SDS011;70631;50.436;7.826;2023-09-19T04:47:52;5.32;;;1.38;;
81154;SDS011;70631;50.436;7.826;2023-09-19T04:50:18;4.68;;;1.33;;
81154;SDS011;70631;50.436;7.826;2023-09-19T04:52:46;4.75;;;1.52;;
81154;SDS011;70631;50.436;7.826;2023-09-19T04:55:15;2.72;;;1.30;;
81154;SDS011;70631;50.436;7.826;2023-09-19T04:57:42;4.47;;;1.40;;
81154;SDS011;70631;50.436;7.826;2023-09-19T05:00:09;4.60;;;2.00;;
81154;SDS011;70631;50.436;7.826;2023-09-19T05:02:38;4.53;;;1.40;;
81154;SDS011;70631;50.436;7.826;2023-09-19T05:05:05;5.70;;;1.50;;
81154;SDS011;70631;50.436;7.826;2023-09-19T05:07:31;2.75;;;1.40;;
81154;SDS011;70631;50.436;7.826;2023-09-19T05:09:56;4.00;;;1.57;;
81154;SDS011;70631;50.436;7.826;2023-09-19T05:12:22;4.70;;;1.20;;
81154;SDS011;70631;50.436;7.826;2023-09-19T05:14:47;3.80;;;1.67;;
81154;SDS011;70631;50.436;7.826;2023-09-19T05:17:13;6.03;;;1.33;;
81154;SDS011;70631;50.436;7.826;2023-09-19T05:19:38;6.70;;;2.17;;
81154;SDS011;70631;50.436;7.826;2023-09-19T05:22:04;3.63;;;1.90;;
81154;SDS011;70631;50.436;7.826;2023-09-19T05:24:29;4.60;;;1.92;;
81154;SDS011;70631;50.436;7.826;2023-09-19T05:26:55;4.13;;;1.40;;
81154;SDS011;70631;50.436;7.826;2023-09-19T05:29:21;2.58;;;1.55;;
81154;SDS011;70631;50.436;7.826;2023-09-19T05:31:47;4.88;;;1.55;;
81154;SDS011;70631;50.436;7.826;2023-09-19T05:34:12;5.53;;;1.70;;
81154;SDS011;70631;50.436;7.826;2023-09-19T05:36:38;4.45;;;1.30;;
81154;SDS011;70631;50.436;7.826;2023-09-19T05:39:04;4.18;;;1.92;;
81154;SDS011;70631;50.436;7.826;2023-09-19T05:41:31;5.15;;;1.65;;
81154;SDS011;70631;50.436;7.826;2023-09-19T05:43:56;5.13;;;1.67;;
81154;SDS011;70631;50.436;7.826;2023-09-19T05:46:21;5.47;;;2.17;;
81154;SDS011;70631;50.436;7.826;2023-09-19T05:48:47;6.72;;;2.25;;
81154;SDS011;70631;50.436;7.826;2023-09-19T05:51:12;6.93;;;1.42;;
81154;SDS011;70631;50.436;7.826;2023-09-19T05:53:37;1.80;;;1.10;;
81154;SDS011;70631;50.436;7.826;2023-09-19T05:56:03;3.15;;;1.38;;
81154;SDS011;70631;50.436;7.826;2023-09-19T05:58:28;2.53;;;1.30;;
81154;SDS011;70631;50.436;7.826;2023-09-19T06:00:54;6.10;;;1.80;;
81154;SDS011;70631;50.436;7.826;2023-09-19T06:03:20;6.25;;;1.80;;
81154;SDS011;70631;50.436;7.826;2023-09-19T06:05:45;3.97;;;1.50;;
81154;SDS011;70631;50.436;7.826;2023-09-19T06:08:14;4.97;;;1.60;;
81154;SDS011;70631;50.436;7.826;2023-09-19T06:10:39;5.33;;;1.73;;
81154;SDS011;70631;50.436;7.826;2023-09-19T06:13:05;4.95;;;1.40;;
81154;SDS011;70631;50.436;7.826;2023-09-19T06:15:30;2.13;;;1.30;;
81154;SDS011;70631;50.436;7.826;2023-09-19T06:17:58;5.20;;;1.30;;
81154;SDS011;70631;50.436;7.826;2023-09-19T06:20:24;3.70;;;1.35;;
81154;SDS011;70631;50.436;7.826;2023-09-19T06:22:51;5.88;;;1.60;;
81154;SDS011;70631;50.436;7.826;2023-09-19T06:25:16;4.78;;;2.00;;
81154;SDS011;70631;50.436;7.826;2023-09-19T06:27:44;3.67;;;1.60;;
81154;SDS011;70631;50.436;7.826;2023-09-19T06:30:10;9.45;;;1.50;;
81154;SDS011;70631;50.436;7.826;2023-09-19T06:32:39;6.82;;;1.50;;
81154;SDS011;70631;50.436;7.826;2023-09-19T06:35:08;4.10;;;1.42;;
81154;SDS011;70631;50.436;7.826;2023-09-19T06:37:33;3.10;;;1.20;;
81154;SDS011;70631;50.436;7.826;2023-09-19T06:40:04;4.88;;;1.40;;
81154;SDS011;70631;50.436;7.826;2023-09-19T06:42:31;7.50;;;1.45;;
81154;SDS011;70631;50.436;7.826;2023-09-19T06:44:57;6.20;;;1.30;;
81154;SDS011;70631;50.436;7.826;2023-09-19T06:47:23;6.23;;;1.43;;
81154;SDS011;70631;50.436;7.826;2023-09-19T06:49:50;4.90;;;2.00;;
81154;SDS011;70631;50.436;7.826;2023-09-19T06:52:17;5.20;;;1.27;;
81154;SDS011;70631;50.436;7.826;2023-09-19T06:54:42;4.82;;;1.38;;
81154;SDS011;70631;50.436;7.826;2023-09-19T06:57:07;7.97;;;2.37;;
81154;SDS011;70631;50.436;7.826;2023-09-19T06:59:35;5.18;;;1.65;;
81154;SDS011;70631;50.436;7.826;2023-09-19T07:02:02;5.03;;;1.50;;
81154;SDS011;70631;50.436;7.826;2023-09-19T07:04:27;3.40;;;1.60;;
81154;SDS011;70631;50.436;7.826;2023-09-19T07:06:52;5.00;;;1.53;;
81154;SDS011;70631;50.436;7.826;2023-09-19T07:09:18;4.70;;;2.00;;
81154;SDS011;70631;50.436;7.826;2023-09-19T07:11:47;4.32;;;1.30;;
81154;SDS011;70631;50.436;7.826;2023-09-19T07:14:15;3.22;;;1.40;;
81154;SDS011;70631;50.436;7.826;2023-09-19T07:16:41;2.75;;;1.67;;
81154;SDS011;70631;50.436;7.826;2023-09-19T07:19:09;5.88;;;1.25;;
81154;SDS011;70631;50.436;7.826;2023-09-19T07:21:34;7.10;;;1.53;;
81154;SDS011;70631;50.436;7.826;2023-09-19T07:24:04;4.63;;;1.88;;
81154;SDS011;70631;50.436;7.826;2023-09-19T07:26:29;4.45;;;1.70;;
81154;SDS011;70631;50.436;7.826;2023-09-19T07:28:56;3.13;;;1.67;;
81154;SDS011;70631;50.436;7.826;2023-09-19T07:31:22;5.03;;;1.60;;
81154;SDS011;70631;50.436;7.826;2023-09-19T07:33:47;6.82;;;1.75;;
81154;SDS011;70631;50.436;7.826;2023-09-19T07:36:13;8.55;;;1.90;;
81154;SDS011;70631;50.436;7.826;2023-09-19T07:38:39;7.35;;;1.77;;
81154;SDS011;70631;50.436;7.826;2023-09-19T07:41:05;14.43;;;2.50;;
81154;SDS011;70631;50.436;7.826;2023-09-19T07:43:30;9.10;;;1.90;;
81154;SDS011;70631;50.436;7.826;2023-09-19T07:45:56;8.27;;;1.88;;
81154;SDS011;70631;50.436;7.826;2023-09-19T07:48:21;6.32;;;1.80;;
81154;SDS011;70631;50.436;7.826;2023-09-19T07:50:48;6.25;;;2.05;;
81154;SDS011;70631;50.436;7.826;2023-09-19T07:53:13;6.97;;;1.83;;
81154;SDS011;70631;50.436;7.826;2023-09-19T07:55:39;6.93;;;2.40;;
81154;SDS011;70631;50.436;7.826;2023-09-19T07:58:06;4.32;;;1.73;;
81154;SDS011;70631;50.436;7.826;2023-09-19T08:00:32;5.07;;;1.95;;
81154;SDS011;70631;50.436;7.826;2023-09-19T08:02:59;9.02;;;1.90;;
81154;SDS011;70631;50.436;7.826;2023-09-19T08:05:25;10.48;;;1.77;;
81154;SDS011;70631;50.436;7.826;2023-09-19T08:07:51;5.43;;;1.83;;
81154;SDS011;70631;50.436;7.826;2023-09-19T08:10:17;7.53;;;1.77;;
81154;SDS011;70631;50.436;7.826;2023-09-19T08:12:44;6.28;;;1.88;;
81154;SDS011;70631;50.436;7.826;2023-09-19T08:15:12;6.68;;;1.30;;
81154;SDS011;70631;50.436;7.826;2023-09-19T08:17:45;5.20;;;1.40;;
81154;SDS011;70631;50.436;7.826;2023-09-19T08:20:11;3.65;;;1.25;;
81154;SDS011;70631;50.436;7.826;2023-09-19T08:22:50;6.00;;;1.55;;
81154;SDS011;70631;50.436;7.826;2023-09-19T08:25:20;4.20;;;1.40;;
81154;SDS011;70631;50.436;7.826;2023-09-19T08:27:47;7.47;;;1.52;;
81154;SDS011;70631;50.436;7.826;2023-09-19T08:30:15;5.72;;;1.70;;
81154;SDS011;70631;50.436;7.826;2023-09-19T08:32:41;4.97;;;1.50;;
81154;SDS011;70631;50.436;7.826;2023-09-19T08:35:07;4.97;;;1.58;;
81154;SDS011;70631;50.436;7.826;2023-09-19T08:37:34;7.15;;;1.70;;
81154;SDS011;70631;50.436;7.826;2023-09-19T08:40:00;6.05;;;2.00;;
81154;SDS011;70631;50.436;7.826;2023-09-19T08:42:25;4.17;;;1.70;;
81154;SDS011;70631;50.436;7.826;2023-09-19T08:44:51;7.40;;;1.90;;
81154;SDS011;70631;50.436;7.826;2023-09-19T08:47:19;5.97;;;2.13;;
81154;SDS011;70631;50.436;7.826;2023-09-19T08:50:01;8.07;;;1.98;;
81154;SDS011;70631;50.436;7.826;2023-09-19T08:55:07;6.60;;;1.70;;
81154;SDS011;70631;50.436;7.826;2023-09-19T08:57:35;5.32;;;1.42;;
81154;SDS011;70631;50.436;7.826;2023-09-19T09:00:06;6.47;;;2.00;;
81154;SDS011;70631;50.436;7.826;2023-09-19T09:02:37;6.50;;;1.95;;
81154;SDS011;70631;50.436;7.826;2023-09-19T09:05:07;7.68;;;1.88;;
81154;SDS011;70631;50.436;7.826;2023-09-19T09:07:34;7.20;;;1.80;;
81154;SDS011;70631;50.436;7.826;2023-09-19T09:10:04;5.88;;;1.90;;
81154;SDS011;70631;50.436;7.826;2023-09-19T09:12:30;5.38;;;1.75;;
81154;SDS011;70631;50.436;7.826;2023-09-19T09:14:56;6.00;;;1.83;;
81154;SDS011;70631;50.436;7.826;2023-09-19T09:17:22;5.30;;;1.40;;
81154;SDS011;70631;50.436;7.826;2023-09-19T09:19:49;4.57;;;1.60;;
81154;SDS011;70631;50.436;7.826;2023-09-19T09:22:17;5.55;;;1.63;;
81154;SDS011;70631;50.436;7.826;2023-09-19T09:27:26;6.40;;;1.60;;
81154;SDS011;70631;50.436;7.826;2023-09-19T09:29:52;3.30;;;1.65;;
81154;SDS011;70631;50.436;7.826;2023-09-19T09:32:21;5.80;;;2.03;;
81154;SDS011;70631;50.436;7.826;2023-09-19T09:35:02;4.03;;;1.63;;
81154;SDS011;70631;50.436;7.826;2023-09-19T09:37:34;5.35;;;1.90;;
81154;SDS011;70631;50.436;7.826;2023-09-19T09:40:03;6.63;;;1.85;;
81154;SDS011;70631;50.436;7.826;2023-09-19T09:42:42;6.65;;;1.67;;
81154;SDS011;70631;50.436;7.826;2023-09-19T09:45:18;5.10;;;1.83;;
81154;SDS011;70631;50.436;7.826;2023-09-19T09:48:02;3.90;;;1.85;;
81154;SDS011;70631;50.436;7.826;2023-09-19T09:50:32;8.13;;;2.05;;
81154;SDS011;70631;50.436;7.826;2023-09-19T09:53:29;7.13;;;1.85;;
81154;SDS011;70631;50.436;7.826;2023-09-19T09:56:14;6.40;;;2.60;;
81154;SDS011;70631;50.436;7.826;2023-09-19T09:58:51;5.88;;;2.05;;
81154;SDS011;70631;50.436;7.826;2023-09-19T10:01:23;5.22;;;1.75;;
81154;SDS011;70631;50.436;7.826;2023-09-19T10:03:52;5.57;;;1.63;;
81154;SDS011;70631;50.436;7.826;2023-09-19T10:06:22;6.20;;;1.88;;
81154;SDS011;70631;50.436;7.826;2023-09-19T10:09:00;6.88;;;2.03;;
81154;SDS011;70631;50.436;7.826;2023-09-19T10:11:30;7.30;;;1.80;;
81154;SDS011;70631;50.436;7.826;2023-09-19T10:13:56;8.45;;;2.28;;
81154;SDS011;70631;50.436;7.826;2023-09-19T10:16:26;5.97;;;1.63;;
81154;SDS011;70631;50.436;7.826;2023-09-19T10:18:56;8.23;;;1.92;;
81154;SDS011;70631;50.436;7.826;2023-09-19T10:21:26;4.10;;;2.05;;
81154;SDS011;70631;50.436;7.826;2023-09-19T10:23:55;6.78;;;1.98;;
81154;SDS011;70631;50.436;7.826;2023-09-19T10:26:24;4.18;;;2.00;;
81154;SDS011;70631;50.436;7.826;2023-09-19T10:28:51;10.43;;;2.30;;
81154;SDS011;70631;50.436;7.826;2023-09-19T10:31:18;4.82;;;1.73;;
81154;SDS011;70631;50.436;7.826;2023-09-19T10:33:46;3.60;;;1.60;;
81154;SDS011;70631;50.436;7.826;2023-09-19T10:36:14;4.90;;;1.52;;
81154;SDS011;70631;50.436;7.826;2023-09-19T10:38:40;3.47;;;1.55;;
81154;SDS011;70631;50.436;7.826;2023-09-19T10:41:08;4.47;;;1.52;;
81154;SDS011;70631;50.436;7.826;2023-09-19T10:43:35;7.35;;;2.05;;
81154;SDS011;70631;50.436;7.826;2023-09-19T10:46:07;9.43;;;1.70;;
81154;SDS011;70631;50.436;7.826;2023-09-19T10:48:35;6.35;;;2.05;;
81154;SDS011;70631;50.436;7.826;2023-09-19T10:51:03;5.65;;;1.63;;
81154;SDS011;70631;50.436;7.826;2023-09-19T10:53:32;6.95;;;1.63;;
81154;SDS011;70631;50.436;7.826;2023-09-19T10:56:08;4.50;;;1.88;;
81154;SDS011;70631;50.436;7.826;2023-09-19T10:58:42;5.57;;;1.95;;
81154;SDS011;70631;50.436;7.826;2023-09-19T11:01:09;8.75;;;1.77;;
81154;SDS011;70631;50.436;7.826;2023-09-19T11:03:40;4.28;;;2.00;;
81154;SDS011;70631;50.436;7.826;2023-09-19T11:06:10;6.22;;;2.17;;
81154;SDS011;70631;50.436;7.826;2023-09-19T11:30:39;6.35;;;1.85;;
81154;SDS011;70631;50.436;7.826;2023-09-19T11:33:24;4.97;;;1.67;;
81154;SDS011;70631;50.436;7.826;2023-09-19T11:36:04;4.07;;;1.30;;
81154;SDS011;70631;50.436;7.826;2023-09-19T11:43:51;5.93;;;1.55;;
81154;SDS011;70631;50.436;7.826;2023-09-19T11:46:29;5.20;;;1.90;;
81154;SDS011;70631;50.436;7.826;2023-09-19T11:48:56;3.25;;;1.73;;
81154;SDS011;70631;50.436;7.826;2023-09-19T11:51:44;3.88;;;1.60;;
81154;SDS011;70631;50.436;7.826;2023-09-19T11:54:11;3.97;;;1.50;;
81154;SDS011;70631;50.436;7.826;2023-09-19T11:56:42;4.28;;;1.60;;
81154;SDS011;70631;50.436;7.826;2023-09-19T11:59:10;7.15;;;1.92;;
81154;SDS011;70631;50.436;7.826;2023-09-19T12:01:35;4.93;;;1.65;;
81154;SDS011;70631;50.436;7.826;2023-09-19T12:04:11;2.88;;;1.25;;
81154;SDS011;70631;50.436;7.826;2023-09-19T12:06:37;5.90;;;1.17;;
81154;SDS011;70631;50.436;7.826;2023-09-19T12:09:11;3.20;;;1.45;;
81154;SDS011;70631;50.436;7.826;2023-09-19T12:11:42;2.60;;;1.33;;
81154;SDS011;70631;50.436;7.826;2023-09-19T12:14:09;3.78;;;1.30;;
81154;SDS011;70631;50.436;7.826;2023-09-19T12:16:34;2.90;;;1.20;;
81154;SDS011;70631;50.436;7.826;2023-09-19T12:19:17;2.92;;;1.40;;
81154;SDS011;70631;50.436;7.826;2023-09-19T12:21:52;3.78;;;1.48;;
81154;SDS011;70631;50.436;7.826;2023-09-19T12:24:19;5.53;;;1.50;;
81154;SDS011;70631;50.436;7.826;2023-09-19T12:26:45;4.10;;;1.30;;
81154;SDS011;70631;50.436;7.826;2023-09-19T12:29:18;3.38;;;1.17;;
81154;SDS011;70631;50.436;7.826;2023-09-19T12:31:52;3.40;;;1.13;;
81154;SDS011;70631;50.436;7.826;2023-09-19T12:34:24;2.05;;;1.05;;
81154;SDS011;70631;50.436;7.826;2023-09-19T12:37:36;3.22;;;1.30;;
81154;SDS011;70631;50.436;7.826;2023-09-19T12:39:47;3.17;;;1.13;;
81154;SDS011;70631;50.436;7.826;2023-09-19T12:42:22;3.20;;;1.15;;
81154;SDS011;70631;50.436;7.826;2023-09-19T12:44:51;4.35;;;1.27;;
81154;SDS011;70631;50.436;7.826;2023-09-19T12:47:25;7.03;;;1.60;;
81154;SDS011;70631;50.436;7.826;2023-09-19T12:50:07;3.88;;;1.20;;
81154;SDS011;70631;50.436;7.826;2023-09-19T12:52:51;5.78;;;1.45;;
81154;SDS011;70631;50.436;7.826;2023-09-19T12:58:09;4.07;;;1.25;;
81154;SDS011;70631;50.436;7.826;2023-09-19T13:00:43;2.90;;;1.23;;
81154;SDS011;70631;50.436;7.826;2023-09-19T13:03:17;4.05;;;1.30;;
81154;SDS011;70631;50.436;7.826;2023-09-19T13:11:05;4.30;;;0.82;;
81154;SDS011;70631;50.436;7.826;2023-09-19T13:13:32;4.80;;;1.60;;
81154;SDS011;70631;50.436;7.826;2023-09-19T13:15:58;2.55;;;0.88;;
81154;SDS011;70631;50.436;7.826;2023-09-19T13:18:24;3.63;;;1.63;;
81154;SDS011;70631;50.436;7.826;2023-09-19T13:21:06;4.70;;;1.35;;
81154;SDS011;70631;50.436;7.826;2023-09-19T13:23:49;3.33;;;1.05;;
81154;SDS011;70631;50.436;7.826;2023-09-19T13:26:19;6.20;;;1.42;;
81154;SDS011;70631;50.436;7.826;2023-09-19T13:28:45;3.65;;;1.30;;
81154;SDS011;70631;50.436;7.826;2023-09-19T13:31:10;3.42;;;1.02;;
81154;SDS011;70631;50.436;7.826;2023-09-19T13:33:42;2.17;;;1.10;;
81154;SDS011;70631;50.436;7.826;2023-09-19T13:36:08;3.35;;;1.20;;
81154;SDS011;70631;50.436;7.826;2023-09-19T13:38:33;8.52;;;1.80;;
81154;SDS011;70631;50.436;7.826;2023-09-19T13:40:59;4.75;;;1.15;;
81154;SDS011;70631;50.436;7.826;2023-09-19T13:43:25;2.13;;;0.77;;
81154;SDS011;70631;50.436;7.826;2023-09-19T13:45:51;3.30;;;1.40;;
81154;SDS011;70631;50.436;7.826;2023-09-19T13:48:16;2.80;;;1.00;;
81154;SDS011;70631;50.436;7.826;2023-09-19T13:50:45;2.72;;;1.45;;
81154;SDS011;70631;50.436;7.826;2023-09-19T13:53:10;6.43;;;1.07;;
81154;SDS011;70631;50.436;7.826;2023-09-19T13:55:36;6.13;;;1.40;;
81154;SDS011;70631;50.436;7.826;2023-09-19T13:58:02;4.93;;;1.50;;
81154;SDS011;70631;50.436;7.826;2023-09-19T14:00:30;3.67;;;1.10;;
81154;SDS011;70631;50.436;7.826;2023-09-19T14:02:59;3.88;;;1.13;;
81154;SDS011;70631;50.436;7.826;2023-09-19T14:05:25;4.05;;;1.13;;
81154;SDS011;70631;50.436;7.826;2023-09-19T14:07:52;3.63;;;1.10;;
81154;SDS011;70631;50.436;7.826;2023-09-19T14:10:20;5.45;;;1.17;;
81154;SDS011;70631;50.436;7.826;2023-09-19T14:12:46;3.38;;;0.90;;
81154;SDS011;70631;50.436;7.826;2023-09-19T14:15:11;4.53;;;1.05;;
81154;SDS011;70631;50.436;7.826;2023-09-19T14:17:39;3.53;;;1.10;;
81154;SDS011;70631;50.436;7.826;2023-09-19T14:20:10;3.47;;;1.20;;
81154;SDS011;70631;50.436;7.826;2023-09-19T14:22:36;3.38;;;1.25;;
81154;SDS011;70631;50.436;7.826;2023-09-19T14:25:01;1.73;;;1.02;;
81154;SDS011;70631;50.436;7.826;2023-09-19T14:27:29;3.03;;;1.00;;
81154;SDS011;70631;50.436;7.826;2023-09-19T14:29:54;2.47;;;1.10;;
81154;SDS011;70631;50.436;7.826;2023-09-19T14:32:20;2.13;;;0.95;;
81154;SDS011;70631;50.436;7.826;2023-09-19T14:34:45;4.13;;;1.30;;
81154;SDS011;70631;50.436;7.826;2023-09-19T14:37:11;8.30;;;1.58;;
81154;SDS011;70631;50.436;7.826;2023-09-19T14:39:36;5.30;;;1.73;;
81154;SDS011;70631;50.436;7.826;2023-09-19T14:42:04;4.32;;;1.40;;
81154;SDS011;70631;50.436;7.826;2023-09-19T14:44:29;2.90;;;0.80;;
81154;SDS011;70631;50.436;7.826;2023-09-19T14:46:55;2.03;;;1.10;;
81154;SDS011;70631;50.436;7.826;2023-09-19T14:49:20;3.85;;;1.00;;
81154;SDS011;70631;50.436;7.826;2023-09-19T14:51:45;2.50;;;1.08;;
81154;SDS011;70631;50.436;7.826;2023-09-19T14:54:12;2.67;;;1.15;;
81154;SDS011;70631;50.436;7.826;2023-09-19T14:56:37;2.60;;;1.08;;
81154;SDS011;70631;50.436;7.826;2023-09-19T14:59:03;3.00;;;1.20;;
81154;SDS011;70631;50.436;7.826;2023-09-19T15:01:28;2.75;;;1.10;;
81154;SDS011;70631;50.436;7.826;2023-09-19T15:03:54;1.77;;;0.98;;
81154;SDS011;70631;50.436;7.826;2023-09-19T15:06:20;4.15;;;1.20;;
81154;SDS011;70631;50.436;7.826;2023-09-19T15:08:46;3.20;;;1.10;;
81154;SDS011;70631;50.436;7.826;2023-09-19T15:11:18;3.60;;;1.17;;
81154;SDS011;70631;50.436;7.826;2023-09-19T15:13:45;1.88;;;1.02;;
81154;SDS011;70631;50.436;7.826;2023-09-19T15:16:11;1.70;;;0.77;;
81154;SDS011;70631;50.436;7.826;2023-09-19T15:18:38;3.03;;;1.33;;
81154;SDS011;70631;50.436;7.826;2023-09-19T15:21:09;1.50;;;0.70;;
81154;SDS011;70631;50.436;7.826;2023-09-19T15:23:35;3.08;;;0.90;;
81154;SDS011;70631;50.436;7.826;2023-09-19T15:26:02;3.75;;;1.23;;
81154;SDS011;70631;50.436;7.826;2023-09-19T15:28:28;3.72;;;1.05;;
81154;SDS011;70631;50.436;7.826;2023-09-19T15:31:13;3.33;;;1.30;;
81154;SDS011;70631;50.436;7.826;2023-09-19T15:33:39;2.60;;;0.95;;
81154;SDS011;70631;50.436;7.826;2023-09-19T15:36:08;1.85;;;1.25;;
81154;SDS011;70631;50.436;7.826;2023-09-19T15:41:18;2.95;;;1.10;;
81154;SDS011;70631;50.436;7.826;2023-09-19T15:43:45;2.50;;;0.90;;
81154;SDS011;70631;50.436;7.826;2023-09-19T15:46:11;3.38;;;0.98;;